Time;durP1;ratioP1;P1;durP2;ratioP2;P2;SDS_P1;SDS_P2;PMS_P1;PMS_P2;Temp;Humidity;BMP_temperature;BMP_pressure;BME280_temperature;BME280_humidity;BME280_pressure;Samples;Min_cycle;Max_cycle;Signal;HPM_P1;HPM_P2
2021/12/09 00:04:41;;;;;;;42.03;39.20;;;;;;;6.91;100.00;99914.05;1910747;74;86323;-75
2021/12/09 00:10:25;;;;;;;41.67;38.80;;;;;;;6.97;100.00;99921.20;1974874;71;39639;-76
2021/12/09 00:16:10;;;;;;;40.47;37.77;;;;;;;6.90;100.00;99926.74;1847190;75;86487;-77
2021/12/09 00:21:59;;;;;;;42.07;39.07;;;;;;;6.95;100.00;99927.55;1869303;75;86379;-72
2021/12/09 00:27:43;;;;;;;42.50;39.60;;;;;;;6.95;100.00;99926.17;1911032;74;85584;-76
2021/12/09 00:33:28;;;;;;;44.40;41.00;;;;;;;6.92;100.00;99924.54;1973421;71;39801;-77
2021/12/09 00:39:14;;;;;;;45.30;42.10;;;;;;;6.89;100.00;99922.36;1826386;76;86088;-75
2021/12/09 00:44:57;;;;;;;45.37;42.27;;;;;;;6.93;100.00;99923.44;1912329;73;86570;-72
2021/12/09 00:50:42;;;;;;;45.00;41.50;;;;;;;7.01;100.00;99924.22;1932712;73;86730;-77
2021/12/09 00:56:26;;;;;;;44.30;41.70;;;;;;;6.96;100.00;99934.73;1934164;71;39610;-75
2021/12/09 01:02:12;;;;;;;46.70;42.23;;;;;;;6.95;100.00;99943.28;1814884;76;86158;-76
2021/12/09 01:07:58;;;;;;;47.10;43.60;;;;;;;6.98;100.00;99949.06;1843456;75;86449;-77
2021/12/09 01:13:43;;;;;;;43.73;40.73;;;;;;;7.01;100.00;99955.97;1930020;71;86316;-72
2021/12/09 01:19:28;;;;;;;42.30;39.30;;;;;;;7.09;100.00;99950.68;1955480;71;39601;-77
2021/12/09 01:25:13;;;;;;;42.63;39.87;;;;;;;7.06;100.00;99950.42;1972937;72;86334;-73
2021/12/09 01:31:02;;;;;;;40.53;37.47;;;;;;;7.01;100.00;99955.42;1888197;73;86528;-77
2021/12/09 01:36:44;;;;;;;39.70;37.10;;;;;;;7.01;100.00;99958.73;1909429;74;86235;-72
2021/12/09 01:42:28;;;;;;;38.23;35.77;;;;;;;6.99;100.00;99967.28;1935894;72;39627;-76
2021/12/09 01:48:11;;;;;;;35.93;33.67;;;;;;;7.03;100.00;99973.89;1825724;76;86337;-75
2021/12/09 01:53:55;;;;;;;35.80;33.67;;;;;;;7.08;100.00;99975.80;1895104;74;86177;-72
2021/12/09 01:59:41;;;;;;;34.90;32.40;;;;;;;7.16;100.00;99977.97;1914842;72;86170;-75
2021/12/09 02:05:28;;;;;;;35.93;33.13;;;;;;;7.19;100.00;99976.84;1951077;71;39534;-72
2021/12/09 02:11:11;;;;;;;34.40;32.10;;;;;;;7.20;100.00;99984.02;1823351;76;86096;-72
2021/12/09 02:16:55;;;;;;;35.03;32.73;;;;;;;7.16;100.00;99989.02;1869957;75;86539;-71
2021/12/09 02:22:45;;;;;;;34.47;31.83;;;;;;;7.11;100.00;99990.41;1912448;74;85353;-72
2021/12/09 02:28:27;;;;;;;36.20;33.73;;;;;;;7.04;100.00;100004.54;1978513;71;40289;-76
2021/12/09 02:34:13;;;;;;;34.10;31.60;;;;;;;6.99;100.00;100010.63;1849348;75;85507;-72
2021/12/09 02:39:58;;;;;;;36.80;34.20;;;;;;;6.92;100.00;100021.98;1881607;73;86467;-74
2021/12/09 02:45:48;;;;;;;35.70;33.50;;;;;;;6.86;100.00;100024.48;1909693;73;86124;-72
2021/12/09 02:51:31;;;;;;;35.90;33.70;;;;;;;6.85;100.00;100039.38;1942607;71;39676;-72
2021/12/09 02:57:15;;;;;;;38.47;36.07;;;;;;;6.89;100.00;100041.05;1845234;76;86845;-72
2021/12/09 03:03:00;;;;;;;36.20;33.83;;;;;;;6.82;100.00;100050.44;1805610;78;85746;-72
2021/12/09 03:08:46;;;;;;;36.80;34.37;;;;;;;6.92;100.00;100049.59;1938216;73;86189;-75
2021/12/09 03:14:28;;;;;;;37.50;34.83;;;;;;;6.94;100.00;100055.64;1933486;71;39614;-76
2021/12/09 03:20:15;;;;;;;38.90;36.40;;;;;;;6.96;100.00;100047.09;1838795;75;86585;-72
2021/12/09 03:25:59;;;;;;;37.57;35.10;;;;;;;6.89;100.00;100057.61;1800431;78;86130;-76
2021/12/09 03:31:46;;;;;;;38.17;35.67;;;;;;;6.94;100.00;100053.43;1916928;72;86402;-72
2021/12/09 03:37:32;;;;;;;38.87;36.57;;;;;;;6.88;100.00;100055.41;1846406;76;86285;-77
2021/12/09 03:43:16;;;;;;;37.47;35.27;;;;;;;6.86;100.00;100066.71;1810667;78;86797;-72
2021/12/09 03:49:00;;;;;;;39.07;36.70;;;;;;;6.80;100.00;100071.95;1807374;78;86495;-77
2021/12/09 03:54:46;;;;;;;39.40;36.77;;;;;;;6.81;100.00;100065.34;1925753;71;86092;-78
2021/12/09 04:00:31;;;;;;;41.80;39.13;;;;;;;6.72;100.00;100067.01;1979758;71;39736;-76
2021/12/09 04:06:16;;;;;;;39.67;36.90;;;;;;;6.74;100.00;100072.27;1823814;76;86579;-72
2021/12/09 04:11:59;;;;;;;39.73;37.33;;;;;;;6.73;100.00;100070.60;1829245;76;86188;-77
2021/12/09 04:17:43;;;;;;;39.27;36.83;;;;;;;6.66;100.00;100083.87;1909586;72;86072;-77
2021/12/09 04:23:29;;;;;;;43.50;40.40;;;;;;;6.59;100.00;100088.86;1938338;71;40316;-77
2021/12/09 04:29:14;;;;;;;42.40;39.50;;;;;;;6.66;100.00;100094.36;1831533;76;86595;-73
2021/12/09 04:34:59;;;;;;;41.27;38.47;;;;;;;6.57;100.00;100105.67;1807432;78;86232;-73
2021/12/09 04:40:44;;;;;;;42.30;39.47;;;;;;;6.50;100.00;100107.89;1918724;73;86389;-77
2021/12/09 04:46:28;;;;;;;45.27;42.53;;;;;;;6.45;100.00;100113.95;1982845;71;39596;-73
2021/12/09 04:52:12;;;;;;;43.27;40.47;;;;;;;6.35;100.00;100120.30;1826926;76;86103;-74
2021/12/09 04:57:56;;;;;;;44.20;41.43;;;;;;;6.41;100.00;100138.52;1870444;75;86422;-73
2021/12/09 05:03:46;;;;;;;46.07;43.30;;;;;;;6.27;100.00;100141.52;1925891;72;86695;-76
2021/12/09 05:09:32;;;;;;;45.63;42.60;;;;;;;6.27;100.00;100151.17;1984487;71;39683;-76
2021/12/09 05:15:16;;;;;;;43.43;40.77;;;;;;;6.32;100.00;100158.91;1838666;76;86372;-73
2021/12/09 05:21:00;;;;;;;45.27;42.30;;;;;;;6.30;100.00;100175.44;1794668;78;86425;-76
2021/12/09 05:30:03;;;;;;;44.33;41.60;;;;;;;6.20;100.00;100178.20;1869626;76;85565;-75
2021/12/09 05:32:24;;;;;;;46.00;43.30;;;;;;;6.21;100.00;100184.80;1800532;77;936910;-75
2021/12/09 05:34:54;;;;;;;45.90;42.90;;;;;;;6.16;100.00;100186.16;1812776;78;936970;-75
2021/12/09 05:40:40;;;;;;;47.60;44.43;;;;;;;6.10;100.00;100183.13;1917426;74;86478;-75
2021/12/09 05:46:23;;;;;;;47.10;43.80;;;;;;;6.14;100.00;100184.25;1963111;71;39491;-76
2021/12/09 05:52:09;;;;;;;46.67;43.70;;;;;;;6.12;100.00;100191.95;1860864;76;86521;-74
2021/12/09 05:57:53;;;;;;;45.73;42.53;;;;;;;5.99;100.00;100191.08;1895277;73;86528;-74
2021/12/09 06:03:37;;;;;;;45.93;42.73;;;;;;;5.92;100.00;100186.38;1938025;72;86365;-72
2021/12/09 06:09:20;;;;;;;46.07;43.17;;;;;;;5.95;100.00;100191.34;1975992;71;39609;-77
2021/12/09 06:15:07;;;;;;;47.70;44.50;;;;;;;5.81;100.00;100177.78;1891405;74;86627;-73
2021/12/09 06:20:52;;;;;;;47.50;44.23;;;;;;;5.70;100.00;100196.73;1882453;75;86387;-76
2021/12/09 06:26:37;;;;;;;45.13;41.87;;;;;;;5.71;100.00;100193.72;1949426;72;85508;-75
2021/12/09 06:32:21;;;;;;;47.27;44.10;;;;;;;5.67;100.00;100200.87;1983360;71;39434;-77
2021/12/09 06:38:08;;;;;;;47.57;44.30;;;;;;;5.71;100.00;100201.16;1880437;74;86537;-74
2021/12/09 06:43:50;;;;;;;44.83;41.50;;;;;;;5.48;100.00;100208.75;1881291;75;86188;-76
2021/12/09 06:49:34;;;;;;;48.37;44.80;;;;;;;5.54;100.00;100211.00;1915804;74;86152;-73
2021/12/09 06:58:26;;;;;;;48.50;45.20;;;;;;;5.45;100.00;100224.45;1971202;69;39444;-76
2021/12/09 07:01:00;;;;;;;48.27;44.87;;;;;;;5.38;100.00;100235.42;1889726;74;935054;-77
2021/12/09 07:03:32;;;;;;;49.67;46.03;;;;;;;5.37;100.00;100240.09;1827474;76;937947;-75
2021/12/09 07:06:06;;;;;;;48.57;45.10;;;;;;;5.26;100.00;100249.38;1864494;75;937021;-74
2021/12/09 07:08:37;;;;;;;50.90;47.33;;;;;;;5.35;100.00;100254.67;1861943;74;938863;-73
2021/12/09 07:11:07;;;;;;;51.23;47.87;;;;;;;5.28;100.00;100252.70;1883080;75;938876;-75
2021/12/09 07:13:37;;;;;;;49.40;45.80;;;;;;;5.33;100.00;100254.13;1798992;77;938998;-73
2021/12/09 07:16:08;;;;;;;47.97;44.43;;;;;;;5.33;100.00;100250.53;1803410;76;938889;-74
2021/12/09 07:18:40;;;;;;;47.30;44.17;;;;;;;5.41;100.00;100263.25;1836460;76;938814;-74
2021/12/09 07:21:12;;;;;;;48.00;44.70;;;;;;;5.41;100.00;100262.42;1826831;76;939049;-74
2021/12/09 07:23:42;;;;;;;48.63;45.50;;;;;;;5.46;100.00;100268.80;1837046;76;938819;-75
2021/12/09 07:26:13;;;;;;;46.85;43.52;;;;;;;5.43;100.00;100274.02;1827572;76;938917;-74
2021/12/09 07:28:44;;;;;;;44.53;41.27;;;;;;;5.33;100.00;100277.53;1875800;74;939167;-74
2021/12/09 07:31:16;;;;;;;49.13;45.73;;;;;;;5.37;100.00;100280.03;1809868;76;938797;-74
2021/12/09 07:33:46;;;;;;;48.67;44.97;;;;;;;5.19;100.00;100288.70;1882333;74;938787;-74
2021/12/09 07:36:16;;;;;;;47.80;44.53;;;;;;;5.25;100.00;100305.55;1832779;74;938939;-75
2021/12/09 07:38:46;;;;;;;47.67;44.27;;;;;;;5.29;100.00;100303.09;1867239;74;939009;-75
2021/12/09 07:44:32;;;;;;;48.50;45.33;;;;;;;5.48;100.00;100304.33;1925662;71;39700;-73
2021/12/09 07:50:20;;;;;;;45.40;42.30;;;;;;;5.55;100.00;100317.88;1802524;78;85518;-72
2021/12/09 07:56:09;;;;;;;46.03;42.13;;;;;;;5.53;100.00;100343.47;1830938;76;86465;-74
2021/12/09 08:01:53;;;;;;;46.40;42.83;;;;;;;5.50;100.00;100345.67;1883503;74;85467;-74
2021/12/09 08:07:41;;;;;;;47.37;43.97;;;;;;;5.48;100.00;100360.24;1955863;72;86345;-75
2021/12/09 08:13:23;;;;;;;45.47;42.30;;;;;;;5.57;100.00;100359.75;1947293;71;39607;-76
2021/12/09 08:19:11;;;;;;;46.40;43.40;;;;;;;5.63;100.00;100351.81;1835228;75;86452;-80
2021/12/09 08:24:56;;;;;;;47.97;44.97;;;;;;;5.80;100.00;100339.54;1886058;73;86298;-75
2021/12/09 08:30:43;;;;;;;47.37;43.80;;;;;;;5.83;100.00;100345.05;1905073;72;86372;-71
2021/12/09 08:36:27;;;;;;;46.90;43.80;;;;;;;5.92;100.00;100345.70;1984270;71;40412;-71
2021/12/09 08:42:11;;;;;;;46.63;43.50;;;;;;;5.69;100.00;100354.33;1984274;70;86766;-75
2021/12/09 08:47:55;;;;;;;47.00;43.30;;;;;;;5.75;100.00;100351.06;1890965;73;86899;-76
2021/12/09 08:53:40;;;;;;;45.97;42.67;;;;;;;6.02;100.00;100351.83;1913304;73;86645;-74
2021/12/09 08:59:26;;;;;;;44.97;41.83;;;;;;;6.00;100.00;100351.80;1981202;71;39573;-77
2021/12/09 09:05:13;;;;;;;46.77;43.40;;;;;;;5.94;100.00;100347.66;1844342;76;85505;-75
2021/12/09 09:10:58;;;;;;;46.17;42.97;;;;;;;6.04;100.00;100366.16;1867629;74;85569;-74
2021/12/09 09:16:43;;;;;;;45.03;41.93;;;;;;;5.90;100.00;100368.55;1900483;74;86643;-75
2021/12/09 09:22:28;;;;;;;46.87;43.30;;;;;;;5.83;100.00;100358.83;1927781;71;39718;-75
2021/12/09 09:28:13;;;;;;;46.90;42.93;;;;;;;5.71;100.00;100356.83;1879976;74;86453;-71
2021/12/09 09:34:02;;;;;;;48.27;44.33;;;;;;;5.62;100.00;100356.49;1820743;77;86598;-75
2021/12/09 09:39:47;;;;;;;49.50;45.43;;;;;;;5.83;100.00;100363.80;1944772;72;86036;-75
2021/12/09 09:45:31;;;;;;;47.77;44.17;;;;;;;5.62;100.00;100384.59;1919175;70;39494;-71
2021/12/09 09:51:18;;;;;;;48.77;45.13;;;;;;;5.92;100.00;100382.91;1800770;78;86135;-74
2021/12/09 09:57:04;;;;;;;46.53;43.00;;;;;;;5.81;100.00;100387.22;1893064;74;85520;-76
2021/12/09 10:02:53;;;;;;;44.83;41.43;;;;;;;6.29;100.00;100380.08;1874356;75;85595;-77
2021/12/09 10:08:40;;;;;;;42.90;39.93;;;;;;;6.65;100.00;100378.30;1943111;71;86077;-77
2021/12/09 10:14:28;;;;;;;40.70;38.10;;;;;;;6.79;100.00;100367.59;1981153;71;39554;-76
2021/12/09 10:20:22;;;;;;;40.87;38.10;;;;;;;6.85;100.00;100359.58;1980259;70;39602;-72
2021/12/09 10:26:24;;;;;;;40.77;38.07;;;;;;;6.89;100.00;100353.78;1835913;76;86887;-75
2021/12/09 10:32:15;;;;;;;42.43;39.40;;;;;;;6.88;100.00;100346.63;1879527;74;86662;-77
2021/12/09 10:41:34;;;;;;;40.43;37.40;;;;;;;7.07;100.00;100328.42;1839312;76;86731;-75
2021/12/09 10:47:14;;;;;;;38.97;36.00;;;;;;;7.24;100.00;100325.38;1729013;80;86361;-75
2021/12/09 10:49:54;;;;;;;40.33;36.97;;;;;;;7.20;100.00;100327.05;1697971;81;936913;-75
2021/12/09 10:52:30;;;;;;;38.13;35.23;;;;;;;7.23;100.00;100319.03;1688170;81;939032;-74
2021/12/09 10:55:00;;;;;;;38.63;36.00;;;;;;;7.29;100.00;100318.48;1677865;82;936975;-75
2021/12/09 10:57:33;;;;;;;38.53;35.83;;;;;;;7.31;100.00;100321.27;1677404;83;938792;-74
2021/12/09 11:03:40;;;;;;;38.97;36.37;;;;;;;7.53;100.00;100306.33;1875266;74;85604;-76
2021/12/09 11:09:26;;;;;;;34.27;32.00;;;;;;;7.55;100.00;100313.22;1976746;71;39648;-77
2021/12/09 11:15:10;;;;;;;34.17;31.63;;;;;;;7.98;100.00;100319.20;1840803;76;86316;-77
2021/12/09 11:20:55;;;;;;;36.33;33.93;;;;;;;7.99;100.00;100313.95;1886312;74;86737;-71
2021/12/09 11:26:59;;;;;;;34.80;32.70;;;;;;;8.00;100.00;100312.27;1881484;74;86358;-76
2021/12/09 11:32:49;;;;;;;34.27;32.07;;;;;;;8.02;100.00;100306.47;1859905;76;86360;-76
2021/12/09 11:38:44;;;;;;;33.33;31.03;;;;;;;8.16;100.00;100318.60;1910746;72;85394;-70
2021/12/09 11:44:19;;;;;;;31.20;29.40;;;;;;;8.22;100.00;100303.62;1953277;70;39622;-77
2021/12/09 11:50:06;;;;;;;33.13;30.73;;;;;;;8.20;100.00;100300.33;1884022;74;86576;-75
2021/12/09 11:56:01;;;;;;;32.10;30.00;;;;;;;8.21;100.00;100295.08;1891626;74;86526;-75
2021/12/09 12:07:59;;;;;;;33.50;31.00;;;;;;;8.43;100.00;100285.84;1953348;72;86989;-78
2021/12/09 12:13:51;;;;;;;32.77;30.77;;;;;;;8.51;100.00;100271.98;1911669;74;86749;-71
2021/12/09 12:20:12;;;;;;;31.87;29.40;;;;;;;8.52;100.00;100275.00;1885632;73;86257;-76
2021/12/09 12:26:40;;;;;;;30.27;28.23;;;;;;;8.57;100.00;100269.44;1882228;73;86166;-69
2021/12/09 12:33:00;;;;;;;34.63;32.23;;;;;;;8.66;100.00;100267.73;1811242;78;86224;-75
2021/12/09 12:45:26;;;;;;;33.60;31.23;;;;;;;8.85;100.00;100252.66;1900536;73;86534;-75
2021/12/09 12:51:12;;;;;;;31.90;29.63;;;;;;;9.00;100.00;100235.34;1839202;76;86531;-76
2021/12/09 12:57:01;;;;;;;31.23;29.03;;;;;;;9.02;100.00;100230.91;1870413;75;86001;-75
2021/12/09 13:03:06;;;;;;;31.70;29.17;;;;;;;9.13;100.00;100204.77;1904831;72;86155;-77
2021/12/09 13:09:07;;;;;;;27.27;25.37;;;;;;;9.00;100.00;100196.57;1908645;74;85640;-77
2021/12/09 13:18:47;;;;;;;30.93;28.37;;;;;;;8.88;100.00;100195.30;1994363;69;39501;-71
2021/12/09 13:21:42;;;;;;;30.73;28.47;;;;;;;8.88;100.00;100191.14;1917727;73;935783;-71
2021/12/09 13:24:39;;;;;;;29.55;27.22;;;;;;;8.89;100.00;100183.94;1906460;73;937586;-72
2021/12/09 13:27:26;;;;;;;32.27;30.10;;;;;;;8.93;100.00;100174.48;1897646;72;938972;-75
2021/12/09 13:30:30;;;;;;;31.67;29.57;;;;;;;8.80;100.00;100179.31;1904053;73;936901;-73
2021/12/09 13:33:08;;;;;;;31.77;29.77;;;;;;;8.76;100.00;100183.77;1919414;72;936762;-75
2021/12/09 13:35:51;;;;;;;33.20;30.73;;;;;;;8.78;100.00;100176.81;1918966;72;937415;-75
2021/12/09 13:47:10;;;;;;;34.17;31.43;;;;;;;8.73;100.00;100163.01;1887836;74;938841;-75
2021/12/09 13:49:47;;;;;;;36.93;34.43;;;;;;;8.71;100.00;100160.28;1877809;75;938964;-75
2021/12/09 13:58:23;;;;;;;36.50;33.97;;;;;;;8.75;100.00;100132.28;1944027;71;39800;-75
2021/12/09 14:04:10;;;;;;;35.83;33.47;;;;;;;8.73;100.00;100129.78;1841755;76;86779;-74
2021/12/09 14:09:59;;;;;;;37.13;34.67;;;;;;;8.67;100.00;100134.56;1869849;74;86401;-75
2021/12/09 14:16:00;;;;;;;43.10;39.50;;;;;;;8.66;100.00;100117.68;1904393;73;86215;-75
2021/12/09 14:21:33;;;;;;;51.83;47.27;;;;;;;8.77;100.00;100109.29;1915612;74;86320;-72
2021/12/09 14:27:22;;;;;;;39.67;36.47;;;;;;;8.82;100.00;100095.38;1950527;71;39668;-70
2021/12/09 14:33:09;;;;;;;47.57;43.93;;;;;;;8.81;100.00;100075.75;1835128;76;86216;-75
2021/12/09 14:38:56;;;;;;;43.13;39.43;;;;;;;8.81;100.00;100080.73;1875526;74;86323;-75
2021/12/09 14:44:42;;;;;;;45.10;41.30;;;;;;;8.72;100.00;100067.80;1908078;73;86528;-71
2021/12/09 14:50:41;;;;;;;41.20;37.63;;;;;;;8.56;100.00;100047.17;1975547;71;39471;-75
2021/12/09 14:56:31;;;;;;;41.93;38.83;;;;;;;8.45;100.00;100037.33;1983062;71;39625;-75
2021/12/09 15:02:43;;;;;;;44.80;41.20;;;;;;;8.58;100.00;100033.05;1921488;73;86292;-70
2021/12/09 15:08:24;;;;;;;47.33;43.33;;;;;;;8.36;100.00;100018.32;1942963;72;40611;-70
2021/12/09 15:14:11;;;;;;;46.93;42.90;;;;;;;8.26;100.00;100003.16;1848868;76;86289;-70
2021/12/09 15:23:32;;;;;;;48.73;44.33;;;;;;;8.36;100.00;99993.97;1795698;78;85370;-75
2021/12/09 15:29:17;;;;;;;42.60;39.20;;;;;;;8.31;100.00;99989.31;1816172;76;85455;-76
2021/12/09 15:35:04;;;;;;;40.13;37.33;;;;;;;8.38;100.00;99983.45;1873901;74;86703;-77
2021/12/09 15:40:50;;;;;;;42.30;38.90;;;;;;;8.43;100.00;99981.44;1880137;75;86596;-71
2021/12/09 15:46:46;;;;;;;42.73;39.83;;;;;;;8.09;100.00;99967.62;1916189;74;86313;-76
2021/12/09 15:52:38;;;;;;;41.17;37.90;;;;;;;8.06;100.00;99962.69;1923241;73;86514;-72
2021/12/09 15:58:24;;;;;;;42.47;39.67;;;;;;;8.21;100.00;99954.23;1944167;71;39661;-71
2021/12/09 16:04:10;;;;;;;45.90;42.47;;;;;;;8.18;100.00;99940.98;1843650;76;86947;-80
2021/12/09 16:09:53;;;;;;;45.00;41.70;;;;;;;8.12;100.00;99928.34;1871539;75;86082;-71
2021/12/09 16:15:50;;;;;;;44.50;41.40;;;;;;;7.98;100.00;99925.98;1914462;74;86286;-76
2021/12/09 16:21:43;;;;;;;45.20;41.83;;;;;;;7.97;100.00;99923.50;1973956;71;40340;-76
2021/12/09 16:27:17;;;;;;;44.97;41.73;;;;;;;7.90;100.00;99916.11;1801512;78;86505;-77
2021/12/09 16:33:02;;;;;;;46.47;43.17;;;;;;;7.80;100.00;99903.20;1876442;74;85573;-74
2021/12/09 16:38:48;;;;;;;45.17;41.63;;;;;;;7.82;100.00;99899.59;1887516;73;86512;-71
2021/12/09 16:44:32;;;;;;;47.20;43.80;;;;;;;7.83;100.00;99886.02;1924357;73;85607;-76
2021/12/09 16:50:20;;;;;;;47.93;44.53;;;;;;;7.94;100.00;99877.08;1889299;74;86534;-69
2021/12/09 16:56:11;;;;;;;49.67;46.00;;;;;;;7.96;100.00;99863.81;1869482;76;85502;-69
2021/12/09 17:01:56;;;;;;;49.20;45.53;;;;;;;7.96;100.00;99858.28;1891281;73;86353;-78
2021/12/09 17:07:41;;;;;;;50.87;47.40;;;;;;;7.99;100.00;99855.74;1965056;72;86314;-75
2021/12/09 17:13:24;;;;;;;48.67;45.20;;;;;;;8.01;100.00;99838.84;1984709;71;39601;-70
2021/12/09 17:19:08;;;;;;;48.57;44.80;;;;;;;8.11;100.00;99838.19;1834409;76;86256;-77
2021/12/09 17:24:58;;;;;;;49.50;45.73;;;;;;;8.09;100.00;99821.60;1868554;75;85813;-78
2021/12/09 17:30:47;;;;;;;49.20;45.13;;;;;;;8.06;100.00;99795.37;1943791;72;85379;-76
2021/12/09 17:36:26;;;;;;;50.27;46.63;;;;;;;8.09;100.00;99781.50;1960978;71;39644;-76
2021/12/09 17:42:11;;;;;;;48.93;45.33;;;;;;;8.08;100.00;99771.03;1850885;76;85417;-77
2021/12/09 17:47:56;;;;;;;51.43;47.73;;;;;;;8.10;100.00;99754.95;1869643;75;86368;-75
2021/12/09 17:53:41;;;;;;;51.93;48.10;;;;;;;8.04;100.00;99734.58;1915267;73;86324;-71
2021/12/09 17:59:27;;;;;;;48.97;45.33;;;;;;;8.10;100.00;99725.91;1976634;71;39796;-70
2021/12/09 18:05:19;;;;;;;51.17;47.33;;;;;;;8.20;100.00;99713.34;1829408;75;86266;-75
2021/12/09 18:10:59;;;;;;;51.50;47.00;;;;;;;8.25;100.00;99693.08;1801150;77;85884;-77
2021/12/09 18:16:44;;;;;;;48.17;44.03;;;;;;;8.24;100.00;99701.94;1917602;72;86443;-74
2021/12/09 18:22:29;;;;;;;46.37;42.70;;;;;;;8.20;100.00;99691.77;1931339;71;39532;-72
2021/12/09 18:28:15;;;;;;;48.70;44.60;;;;;;;8.18;100.00;99685.69;1824803;76;86520;-74
2021/12/09 18:34:00;;;;;;;46.70;42.70;;;;;;;8.23;100.00;99687.02;1808166;78;86333;-73
2021/12/09 18:39:46;;;;;;;51.53;47.83;;;;;;;8.19;100.00;99673.52;1937465;72;86480;-73
2021/12/09 18:45:33;;;;;;;52.37;48.50;;;;;;;8.21;100.00;99661.02;1840394;76;86385;-73
2021/12/09 18:51:23;;;;;;;53.17;49.17;;;;;;;8.31;100.00;99643.49;1979015;71;39525;-75
2021/12/09 18:57:07;;;;;;;50.27;46.33;;;;;;;8.32;100.00;99638.23;1824355;76;86739;-73
2021/12/09 19:02:52;;;;;;;54.23;50.47;;;;;;;8.39;100.00;99636.45;1870601;74;86756;-74
2021/12/09 19:08:39;;;;;;;50.57;46.60;;;;;;;8.45;100.00;99635.27;1947730;72;86682;-72
2021/12/09 19:14:26;;;;;;;50.57;47.27;;;;;;;8.52;100.00;99621.30;1985250;71;40248;-73
2021/12/09 19:20:13;;;;;;;49.40;46.07;;;;;;;8.58;100.00;99615.95;1835057;76;86742;-73
2021/12/09 19:25:58;;;;;;;49.80;46.50;;;;;;;8.67;100.00;99605.02;1878933;74;86226;-73
2021/12/09 19:31:44;;;;;;;48.13;44.20;;;;;;;8.71;100.00;99597.74;1909578;74;86213;-74
2021/12/09 19:37:28;;;;;;;46.00;42.57;;;;;;;8.73;100.00;99569.77;1981103;71;39820;-73
2021/12/09 19:43:12;;;;;;;43.80;40.50;;;;;;;8.77;100.00;99564.67;1840060;76;86609;-77
2021/12/09 19:48:58;;;;;;;44.23;40.97;;;;;;;8.76;100.00;99546.44;1883198;74;86637;-76
2021/12/09 19:54:43;;;;;;;46.43;42.47;;;;;;;8.79;100.00;99535.31;1917603;74;86444;-72
2021/12/09 20:00:31;;;;;;;43.93;40.23;;;;;;;8.80;100.00;99514.25;1949604;71;40326;-76
2021/12/09 20:06:16;;;;;;;42.83;39.10;;;;;;;8.85;100.00;99502.27;1810799;78;86454;-75
2021/12/09 20:12:00;;;;;;;48.97;45.67;;;;;;;8.85;100.00;99496.16;1807890;78;86662;-75
2021/12/09 20:17:45;;;;;;;47.83;44.43;;;;;;;8.88;100.00;99478.92;1937906;72;86597;-73
2021/12/09 20:23:32;;;;;;;48.53;44.60;;;;;;;8.91;100.00;99456.71;1911191;72;85511;-73
2021/12/09 20:29:17;;;;;;;46.90;43.30;;;;;;;8.86;100.00;99438.81;1892006;74;86449;-74
2021/12/09 20:35:00;;;;;;;47.73;43.77;;;;;;;8.82;100.00;99424.77;1807552;78;86361;-74
2021/12/09 20:40:44;;;;;;;48.60;44.43;;;;;;;8.82;100.00;99401.24;1909582;74;86701;-73
2021/12/09 20:46:28;;;;;;;48.73;45.23;;;;;;;8.90;100.00;99382.52;1938525;71;39619;-74
2021/12/09 20:52:13;;;;;;;53.83;49.80;;;;;;;8.90;100.00;99373.41;1829171;75;86218;-74
2021/12/09 20:57:58;;;;;;;62.63;57.40;;;;;;;8.91;100.00;99348.73;1834269;76;86263;-71
2021/12/09 21:03:42;;;;;;;66.80;61.10;;;;;;;8.92;100.00;99335.97;1928922;72;86640;-72
2021/12/09 21:09:25;;;;;;;61.90;57.10;;;;;;;8.97;100.00;99323.95;1982243;70;39471;-72
2021/12/09 21:15:13;;;;;;;65.30;60.40;;;;;;;8.99;100.00;99307.83;1837374;76;86697;-74
2021/12/09 21:20:58;;;;;;;58.50;53.73;;;;;;;8.97;100.00;99293.50;1806049;78;86247;-74
2021/12/09 21:29:52;;;;;;;62.80;58.10;;;;;;;9.04;100.00;99250.95;1954873;71;86193;-73
2021/12/09 21:35:37;;;;;;;58.33;54.33;;;;;;;9.04;100.00;99231.00;1908269;74;86795;-72
2021/12/09 21:41:21;;;;;;;56.07;51.77;;;;;;;9.07;100.00;99232.34;1980513;71;39589;-74
2021/12/09 21:47:05;;;;;;;52.03;48.07;;;;;;;9.14;100.00;99210.55;1827279;76;86446;-73
2021/12/09 21:52:50;;;;;;;57.47;53.47;;;;;;;9.12;100.00;99213.63;1887067;75;86886;-72
2021/12/09 21:58:34;;;;;;;54.10;50.30;;;;;;;9.23;100.00;99205.89;1872359;74;85741;-72
2021/12/09 22:04:19;;;;;;;54.60;51.10;;;;;;;9.22;100.00;99182.64;1962962;71;39616;-73
2021/12/09 22:10:05;;;;;;;52.33;48.93;;;;;;;9.23;100.00;99161.56;1899318;74;85621;-73
2021/12/09 22:15:51;;;;;;;51.03;47.83;;;;;;;9.21;100.00;99146.38;1879853;73;86294;-77
2021/12/09 22:21:35;;;;;;;47.63;44.73;;;;;;;9.28;100.00;99140.66;1912228;73;86462;-75
2021/12/09 22:27:21;;;;;;;49.03;46.03;;;;;;;9.33;100.00;99139.67;1975428;71;39564;-78
2021/12/09 22:33:06;;;;;;;47.00;44.30;;;;;;;9.35;100.00;99134.64;1830420;75;86369;-76
2021/12/09 22:38:50;;;;;;;41.17;38.60;;;;;;;9.23;100.00;99131.09;1879145;73;86623;-77
2021/12/09 22:44:33;;;;;;;46.87;44.27;;;;;;;9.23;100.00;99117.24;1915501;74;85459;-75
2021/12/09 22:50:18;;;;;;;39.17;36.60;;;;;;;9.35;100.00;99113.86;1943442;71;39614;-76
2021/12/09 22:56:04;;;;;;;38.90;36.30;;;;;;;9.37;100.00;99097.16;1881233;74;86737;-76
2021/12/09 23:01:51;;;;;;;38.87;36.37;;;;;;;9.32;100.00;99095.12;1872855;75;86179;-76
2021/12/09 23:07:36;;;;;;;44.17;41.40;;;;;;;9.29;100.00;99095.17;1945042;72;86375;-77
2021/12/09 23:13:22;;;;;;;45.60;43.00;;;;;;;9.43;100.00;99101.43;1942497;71;39674;-77
2021/12/09 23:19:08;;;;;;;40.00;37.60;;;;;;;9.44;100.00;99108.62;1830635;76;85648;-76
2021/12/09 23:24:59;;;;;;;36.63;34.33;;;;;;;9.37;100.00;99106.86;1869726;74;86291;-76
2021/12/09 23:30:41;;;;;;;37.50;35.27;;;;;;;9.30;100.00;99105.69;1909243;73;85408;-76
2021/12/09 23:36:29;;;;;;;38.03;35.63;;;;;;;9.32;100.00;99095.94;1984790;71;39643;-75
2021/12/09 23:42:16;;;;;;;38.63;36.10;;;;;;;9.28;100.00;99092.17;1823874;76;85816;-77
2021/12/09 23:48:02;;;;;;;39.83;37.33;;;;;;;9.30;100.00;99091.84;1809710;78;86631;-76
2021/12/09 23:53:48;;;;;;;39.50;37.00;;;;;;;9.27;100.00;99085.56;1804831;78;86009;-75
2021/12/09 23:59:32;;;;;;;39.53;36.93;;;;;;;9.25;100.00;99090.59;1943697;73;86898;-77
